sensor_id;sensor_type;location;lat;lon;timestamp;pressure;altitude;pressure_sealevel;temperature;humidity
43683;BME280;29285;52.128;21.060;2022-10-03T00:10:02;99657.00;;;10.03;78.62
43683;BME280;29285;52.128;21.060;2022-10-03T00:15:49;99661.27;;;10.06;78.70
43683;BME280;29285;52.128;21.060;2022-10-03T00:21:23;99671.70;;;10.04;78.77
43683;BME280;29285;52.128;21.060;2022-10-03T00:27:05;99651.03;;;10.00;78.91
43683;BME280;29285;52.128;21.060;2022-10-03T00:32:40;99662.23;;;10.02;78.96
43683;BME280;29285;52.128;21.060;2022-10-03T00:54:35;99651.99;;;9.96;79.21
43683;BME280;29285;52.128;21.060;2022-10-03T01:16:32;99630.80;;;9.95;79.40
43683;BME280;29285;52.128;21.060;2022-10-03T01:27:20;99614.93;;;9.87;79.49
43683;BME280;29285;52.128;21.060;2022-10-03T01:32:29;99609.30;;;9.88;79.55
43683;BME280;29285;52.128;21.060;2022-10-03T01:48:24;99605.77;;;9.90;79.69
43683;BME280;29285;52.128;21.060;2022-10-03T01:59:10;99616.10;;;9.93;79.74
43683;BME280;29285;52.128;21.060;2022-10-03T02:04:39;99609.10;;;9.96;79.77
43683;BME280;29285;52.128;21.060;2022-10-03T02:10:19;99603.41;;;9.98;79.82
43683;BME280;29285;52.128;21.060;2022-10-03T02:15:27;99601.30;;;9.96;79.81
43683;BME280;29285;52.128;21.060;2022-10-03T02:37:44;99578.22;;;10.01;79.92
43683;BME280;29285;52.128;21.060;2022-10-03T03:10:51;99576.91;;;10.01;80.04
43683;BME280;29285;52.128;21.060;2022-10-03T03:22:07;99562.66;;;10.00;80.09
43683;BME280;29285;52.128;21.060;2022-10-03T03:27:50;99572.19;;;9.99;80.09
43683;BME280;29285;52.128;21.060;2022-10-03T03:33:09;99565.69;;;9.99;80.13
43683;BME280;29285;52.128;21.060;2022-10-03T03:59:48;99537.45;;;10.02;80.31
43683;BME280;29285;52.128;21.060;2022-10-03T04:16:34;99520.70;;;9.97;80.43
43683;BME280;29285;52.128;21.060;2022-10-03T04:28:05;99512.74;;;9.87;80.54
43683;BME280;29285;52.128;21.060;2022-10-03T04:50:02;99491.34;;;9.93;80.99
43683;BME280;29285;52.128;21.060;2022-10-03T04:55:24;99491.78;;;9.93;81.08
43683;BME280;29285;52.128;21.060;2022-10-03T05:00:30;99478.86;;;9.90;81.14
43683;BME280;29285;52.128;21.060;2022-10-03T05:11:17;99480.70;;;9.86;81.36
43683;BME280;29285;52.128;21.060;2022-10-03T05:17:27;99471.12;;;9.88;81.47
43683;BME280;29285;52.128;21.060;2022-10-03T05:22:00;99473.26;;;9.89;81.58
43683;BME280;29285;52.128;21.060;2022-10-03T05:32:44;99477.45;;;9.95;81.81
43683;BME280;29285;52.128;21.060;2022-10-03T05:38:09;99466.16;;;9.96;81.92
43683;BME280;29285;52.128;21.060;2022-10-03T05:48:53;99469.08;;;10.00;82.12
43683;BME280;29285;52.128;21.060;2022-10-03T06:11:06;99473.92;;;10.12;82.53
43683;BME280;29285;52.128;21.060;2022-10-03T06:16:28;99453.41;;;10.18;82.63
43683;BME280;29285;52.128;21.060;2022-10-03T06:21:58;99442.87;;;10.23;82.70
43683;BME280;29285;52.128;21.060;2022-10-03T07:23:27;99439.34;;;10.40;83.32
43683;BME280;29285;52.128;21.060;2022-10-03T07:34:23;99431.02;;;10.44;83.44
43683;BME280;29285;52.128;21.060;2022-10-03T08:01:39;99446.16;;;10.75;83.86
43683;BME280;29285;52.128;21.060;2022-10-03T08:12:32;99442.88;;;10.96;84.04
43683;BME280;29285;52.128;21.060;2022-10-03T08:35:02;99441.12;;;11.10;84.05
43683;BME280;29285;52.128;21.060;2022-10-03T08:40:55;99437.61;;;11.11;84.02
43683;BME280;29285;52.128;21.060;2022-10-03T08:52:03;99441.08;;;11.25;84.04
43683;BME280;29285;52.128;21.060;2022-10-03T09:35:45;99456.89;;;11.33;83.81
43683;BME280;29285;52.128;21.060;2022-10-03T09:41:18;99454.80;;;11.31;83.77
43683;BME280;29285;52.128;21.060;2022-10-03T10:03:18;99475.93;;;11.21;83.76
43683;BME280;29285;52.128;21.060;2022-10-03T10:09:36;99468.91;;;11.23;83.81
43683;BME280;29285;52.128;21.060;2022-10-03T10:19:48;99494.47;;;11.25;83.94
43683;BME280;29285;52.128;21.060;2022-10-03T10:25:16;99488.35;;;11.27;83.97
43683;BME280;29285;52.128;21.060;2022-10-03T11:38:09;99623.44;;;12.20;84.52
43683;BME280;29285;52.128;21.060;2022-10-03T11:43:54;99626.25;;;12.65;84.64
43683;BME280;29285;52.128;21.060;2022-10-03T11:49:11;99637.90;;;12.68;84.44
43683;BME280;29285;52.128;21.060;2022-10-03T12:05:06;99634.78;;;13.52;83.56
43683;BME280;29285;52.128;21.060;2022-10-03T12:15:48;99645.38;;;14.04;82.72
43683;BME280;29285;52.128;21.060;2022-10-03T12:26:16;99659.11;;;14.51;81.67
43683;BME280;29285;52.128;21.060;2022-10-03T12:31:25;99661.34;;;14.81;81.13
43683;BME280;29285;52.128;21.060;2022-10-03T13:19:18;99717.03;;;14.53;75.99
43683;BME280;29285;52.128;21.060;2022-10-03T13:24:52;99721.24;;;14.89;75.84
43683;BME280;29285;52.128;21.060;2022-10-03T13:30:29;99729.67;;;14.75;75.39
43683;BME280;29285;52.128;21.060;2022-10-03T13:35:49;99737.17;;;14.72;74.82
43683;BME280;29285;52.128;21.060;2022-10-03T13:41:25;99742.50;;;14.60;74.19
43683;BME280;29285;52.128;21.060;2022-10-03T13:46:36;99751.81;;;14.78;73.76
43683;BME280;29285;52.128;21.060;2022-10-03T13:51:59;99750.29;;;15.14;73.58
43683;BME280;29285;52.128;21.060;2022-10-03T13:57:13;99757.85;;;15.49;73.36
43683;BME280;29285;52.128;21.060;2022-10-03T14:07:50;99761.42;;;16.86;73.07
43683;BME280;29285;52.128;21.060;2022-10-03T14:45:02;99792.44;;;22.14;60.31
43683;BME280;29285;52.128;21.060;2022-10-03T14:50:15;99806.56;;;20.05;59.81
43683;BME280;29285;52.128;21.060;2022-10-03T14:55:22;99811.97;;;18.41;59.71
43683;BME280;29285;52.128;21.060;2022-10-03T15:00:40;99822.39;;;17.28;59.92
43683;BME280;29285;52.128;21.060;2022-10-03T15:06:47;99834.33;;;16.27;59.91
43683;BME280;29285;52.128;21.060;2022-10-03T15:11:16;99850.27;;;15.55;60.07
43683;BME280;29285;52.128;21.060;2022-10-03T15:16:21;99854.13;;;15.06;60.31
43683;BME280;29285;52.128;21.060;2022-10-03T15:21:25;99860.39;;;14.81;60.64
43683;BME280;29285;52.128;21.060;2022-10-03T15:26:31;99875.19;;;15.44;61.99
43683;BME280;29285;52.128;21.060;2022-10-03T15:31:39;99875.75;;;15.91;63.07
43683;BME280;29285;52.128;21.060;2022-10-03T15:36:40;99876.02;;;16.25;63.66
43683;BME280;29285;52.128;21.060;2022-10-03T15:41:50;99889.54;;;16.07;63.42
43683;BME280;29285;52.128;21.060;2022-10-03T15:47:13;99882.56;;;15.36;62.30
43683;BME280;29285;52.128;21.060;2022-10-03T15:52:18;99882.60;;;14.82;61.65
43683;BME280;29285;52.128;21.060;2022-10-03T15:57:26;99888.82;;;14.46;61.36
43683;BME280;29285;52.128;21.060;2022-10-03T16:02:37;99894.11;;;14.78;61.92
43683;BME280;29285;52.128;21.060;2022-10-03T16:07:43;99897.81;;;14.38;61.61
43683;BME280;29285;52.128;21.060;2022-10-03T16:13:01;99906.67;;;14.46;61.72
43683;BME280;29285;52.128;21.060;2022-10-03T16:23:43;99906.67;;;13.88;61.18
43683;BME280;29285;52.128;21.060;2022-10-03T16:28:51;99913.84;;;13.57;61.11
43683;BME280;29285;52.128;21.060;2022-10-03T16:34:10;99919.82;;;13.49;61.11
43683;BME280;29285;52.128;21.060;2022-10-03T16:39:16;99916.63;;;13.39;61.18
43683;BME280;29285;52.128;21.060;2022-10-03T16:49:56;99921.07;;;13.23;61.30
43683;BME280;29285;52.128;21.060;2022-10-03T16:55:30;99930.72;;;12.94;61.07
43683;BME280;29285;52.128;21.060;2022-10-03T17:00:50;99932.67;;;12.74;60.94
43683;BME280;29285;52.128;21.060;2022-10-03T17:05:58;99940.23;;;12.55;60.89
43683;BME280;29285;52.128;21.060;2022-10-03T17:11:01;99942.00;;;12.39;60.90
43683;BME280;29285;52.128;21.060;2022-10-03T17:16:19;99941.09;;;12.25;60.94
43683;BME280;29285;52.128;21.060;2022-10-03T17:21:29;99944.65;;;12.08;60.98
43683;BME280;29285;52.128;21.060;2022-10-03T17:26:35;99947.16;;;11.94;61.06
43683;BME280;29285;52.128;21.060;2022-10-03T17:42:35;99947.27;;;11.58;61.78
43683;BME280;29285;52.128;21.060;2022-10-03T17:47:57;99952.28;;;11.49;61.87
43683;BME280;29285;52.128;21.060;2022-10-03T17:53:14;99941.38;;;11.33;62.16
43683;BME280;29285;52.128;21.060;2022-10-03T17:58:20;99957.55;;;11.29;62.46
43683;BME280;29285;52.128;21.060;2022-10-03T18:03:48;99960.25;;;11.24;62.75
43683;BME280;29285;52.128;21.060;2022-10-03T18:08:48;99971.32;;;11.16;62.96
43683;BME280;29285;52.128;21.060;2022-10-03T18:13:57;99973.18;;;11.11;63.23
43683;BME280;29285;52.128;21.060;2022-10-03T18:30:03;99980.46;;;10.96;63.82
43683;BME280;29285;52.128;21.060;2022-10-03T18:35:19;99990.94;;;10.93;63.97
43683;BME280;29285;52.128;21.060;2022-10-03T18:40:26;99989.72;;;10.90;64.13
43683;BME280;29285;52.128;21.060;2022-10-03T18:45:38;99993.37;;;10.81;64.23
43683;BME280;29285;52.128;21.060;2022-10-03T18:51:04;99996.87;;;10.80;64.40
43683;BME280;29285;52.128;21.060;2022-10-03T18:56:24;99998.20;;;10.79;64.56
43683;BME280;29285;52.128;21.060;2022-10-03T19:06:52;99997.36;;;10.78;64.90
43683;BME280;29285;52.128;21.060;2022-10-03T19:22:42;100006.89;;;10.58;65.26
43683;BME280;29285;52.128;21.060;2022-10-03T19:27:44;100014.45;;;10.49;65.42
43683;BME280;29285;52.128;21.060;2022-10-03T19:33:04;100014.13;;;10.43;65.56
43683;BME280;29285;52.128;21.060;2022-10-03T19:38:14;100016.37;;;10.39;65.75
43683;BME280;29285;52.128;21.060;2022-10-03T19:48:32;100021.27;;;10.32;66.12
43683;BME280;29285;52.128;21.060;2022-10-03T19:53:39;100023.09;;;10.27;66.28
43683;BME280;29285;52.128;21.060;2022-10-03T19:58:44;100018.41;;;10.23;66.44
43683;BME280;29285;52.128;21.060;2022-10-03T20:03:50;100024.98;;;10.18;66.58
43683;BME280;29285;52.128;21.060;2022-10-03T20:08:55;100022.38;;;10.18;66.76
43683;BME280;29285;52.128;21.060;2022-10-03T20:14:01;100031.97;;;10.16;66.90
43683;BME280;29285;52.128;21.060;2022-10-03T20:19:09;100028.96;;;10.15;67.05
43683;BME280;29285;52.128;21.060;2022-10-03T20:24:32;100032.02;;;10.13;67.20
43683;BME280;29285;52.128;21.060;2022-10-03T20:29:43;100026.79;;;10.15;67.36
43683;BME280;29285;52.128;21.060;2022-10-03T20:34:52;100023.42;;;10.10;67.53
43683;BME280;29285;52.128;21.060;2022-10-03T20:39:59;100027.70;;;10.12;67.69
43683;BME280;29285;52.128;21.060;2022-10-03T20:45:21;100032.91;;;10.12;67.85
43683;BME280;29285;52.128;21.060;2022-10-03T21:01:09;100022.38;;;10.18;68.40
43683;BME280;29285;52.128;21.060;2022-10-03T21:06:23;100023.63;;;10.22;68.59
43683;BME280;29285;52.128;21.060;2022-10-03T21:11:27;100021.41;;;10.24;68.74
43683;BME280;29285;52.128;21.060;2022-10-03T21:16:34;100020.50;;;10.27;68.90
43683;BME280;29285;52.128;21.060;2022-10-03T21:21:45;100016.59;;;10.27;69.07
43683;BME280;29285;52.128;21.060;2022-10-03T21:26:58;100019.15;;;10.30;69.24
43683;BME280;29285;52.128;21.060;2022-10-03T21:37:54;100026.10;;;10.28;69.55
43683;BME280;29285;52.128;21.060;2022-10-03T21:43:04;100032.20;;;10.27;69.73
43683;BME280;29285;52.128;21.060;2022-10-03T22:21:36;100030.71;;;10.13;70.93
43683;BME280;29285;52.128;21.060;2022-10-03T22:26:52;100028.59;;;10.11;71.06
43683;BME280;29285;52.128;21.060;2022-10-03T22:32:05;100028.19;;;10.10;71.22
43683;BME280;29285;52.128;21.060;2022-10-03T22:37:07;100023.42;;;10.10;71.37
43683;BME280;29285;52.128;21.060;2022-10-03T22:42:11;100012.19;;;10.09;71.51
43683;BME280;29285;52.128;21.060;2022-10-03T22:47:20;100020.44;;;10.07;71.65
43683;BME280;29285;52.128;21.060;2022-10-03T22:52:25;100019.14;;;10.07;71.81
43683;BME280;29285;52.128;21.060;2022-10-03T22:57:29;100016.16;;;10.04;71.93
43683;BME280;29285;52.128;21.060;2022-10-03T23:02:34;100012.33;;;10.01;72.09
43683;BME280;29285;52.128;21.060;2022-10-03T23:07:45;100013.14;;;10.03;72.22
43683;BME280;29285;52.128;21.060;2022-10-03T23:18:29;100011.56;;;9.96;72.53
43683;BME280;29285;52.128;21.060;2022-10-03T23:23:54;100015.46;;;9.96;72.70
43683;BME280;29285;52.128;21.060;2022-10-03T23:29:11;100013.72;;;9.95;72.89
43683;BME280;29285;52.128;21.060;2022-10-03T23:45:10;100023.50;;;10.06;73.42
43683;BME280;29285;52.128;21.060;2022-10-03T23:50:24;100027.73;;;10.11;73.60
43683;BME280;29285;52.128;21.060;2022-10-03T23:55:30;100024.59;;;10.16;73.75
